createdAt,value
2023-03-25T00:01:14.074Z,98171.88
2023-03-25T00:03:50.771Z,98169.25
2023-03-25T00:06:17.977Z,98154.28
2023-03-25T00:08:44.585Z,98166.72
2023-03-25T00:11:11.633Z,98164.19
2023-03-25T00:13:38.345Z,98169.50
2023-03-25T00:16:07.192Z,98168.63
2023-03-25T00:18:33.974Z,98177.75
2023-03-25T00:21:02.587Z,98180.25
2023-03-25T00:23:31.131Z,98178.31
2023-03-25T00:26:00.410Z,98186.69
2023-03-25T00:28:33.394Z,98184.31
2023-03-25T00:31:06.056Z,98172.88
2023-03-25T00:33:33.233Z,98169.81
2023-03-25T00:36:00.009Z,98168.66
2023-03-25T00:38:34.191Z,98163.66
2023-03-25T00:41:29.124Z,98155.81
2023-03-25T00:43:57.158Z,98165.38
2023-03-25T00:46:27.324Z,98168.78
2023-03-25T00:48:54.321Z,98173.56
2023-03-25T00:51:22.254Z,98175.38
2023-03-25T00:53:54.532Z,98172.50
2023-03-25T00:56:24.578Z,98186.78
2023-03-25T00:58:51.187Z,98177.94
2023-03-25T01:01:23.347Z,98181.63
2023-03-25T01:03:57.991Z,98184.56
2023-03-25T01:06:32.535Z,98183.16
2023-03-25T01:09:00.963Z,98171.22
2023-03-25T01:11:31.221Z,98168.91
2023-03-25T01:13:59.829Z,98167.28
2023-03-25T01:16:27.367Z,98167.56
2023-03-25T01:18:55.792Z,98164.75
2023-03-25T01:21:22.514Z,98181.19
2023-03-25T01:23:49.291Z,98191.63
2023-03-25T01:26:15.997Z,98192.28
2023-03-25T01:28:43.953Z,98194.00
2023-03-25T01:31:12.944Z,98192.94
2023-03-25T01:33:39.986Z,98189.94
2023-03-25T01:36:10.017Z,98168.69
2023-03-25T01:38:37.252Z,98191.47
2023-03-25T01:41:04.959Z,98181.78
2023-03-25T01:43:31.980Z,98189.53
2023-03-25T01:45:59.439Z,98181.81
2023-03-25T01:48:45.029Z,98182.84
2023-03-25T01:51:22.634Z,98170.34
2023-03-25T01:53:53.221Z,98162.59
2023-03-25T01:56:36.732Z,98159.09
2023-03-25T01:59:06.790Z,98148.00
2023-03-25T02:01:34.187Z,98148.34
2023-03-25T02:04:03.085Z,98147.53
2023-03-25T02:06:46.780Z,98141.25
2023-03-25T02:09:16.648Z,98134.41
2023-03-25T02:11:43.182Z,98141.56
2023-03-25T02:14:14.926Z,98143.94
2023-03-25T02:17:19.916Z,98139.50
2023-03-25T02:20:09.261Z,98132.03
2023-03-25T02:23:01.978Z,98127.69
2023-03-25T02:25:46.942Z,98125.84
2023-03-25T02:28:26.157Z,98127.91
2023-03-25T02:31:17.326Z,98128.00
2023-03-25T02:34:06.024Z,98121.91
2023-03-25T02:37:10.896Z,98107.78
2023-03-25T02:39:55.040Z,98121.69
2023-03-25T02:42:46.355Z,98106.88
2023-03-25T02:45:17.122Z,98113.47
2023-03-25T02:47:49.082Z,98108.03
2023-03-25T02:50:38.600Z,98103.69
2023-03-25T02:53:10.937Z,98109.84
2023-03-25T02:55:41.434Z,98104.09
2023-03-25T02:58:11.904Z,98108.91
2023-03-25T03:00:39.802Z,98103.50
2023-03-25T03:03:08.400Z,98095.47
2023-03-25T03:05:43.752Z,98102.09
2023-03-25T03:08:37.793Z,98095.53
2023-03-25T03:11:13.671Z,98103.91
2023-03-25T03:14:36.279Z,98101.16
2023-03-25T03:17:08.389Z,98106.53
2023-03-25T03:20:16.566Z,98098.06
2023-03-25T03:22:54.359Z,98098.75
2023-03-25T03:25:29.983Z,98091.63
2023-03-25T03:28:25.754Z,98088.88
2023-03-25T03:31:59.201Z,98105.06
2023-03-25T03:34:44.826Z,98106.81
2023-03-25T03:37:19.242Z,98108.03
2023-03-25T03:39:48.808Z,98109.78
2023-03-25T03:42:18.866Z,98117.03
2023-03-25T03:44:54.413Z,98108.91
2023-03-25T03:47:26.212Z,98110.94
2023-03-25T03:50:03.748Z,98122.06
2023-03-25T03:52:40.989Z,98116.19
2023-03-25T03:55:14.109Z,98117.56
2023-03-25T03:57:52.450Z,98114.41
2023-03-25T04:00:25.769Z,98110.19
2023-03-25T04:03:14.570Z,98114.03
2023-03-25T04:05:48.813Z,98101.56
2023-03-25T04:08:32.810Z,98106.97
2023-03-25T04:11:05.481Z,98106.81
2023-03-25T04:13:36.820Z,98102.19
2023-03-25T04:16:03.879Z,98104.13
2023-03-25T04:18:33.696Z,98107.41
2023-03-25T04:21:01.307Z,98106.63
2023-03-25T04:23:31.922Z,98104.50
2023-03-25T04:26:02.622Z,98107.38
2023-03-25T04:28:29.645Z,98107.44
2023-03-25T04:30:57.480Z,98106.34
2023-03-25T04:33:25.157Z,98104.72
2023-03-25T04:35:52.877Z,98114.81
2023-03-25T04:38:20.387Z,98106.59
2023-03-25T04:40:47.750Z,98102.56
2023-03-25T04:43:15.854Z,98107.56
2023-03-25T04:45:49.020Z,98119.28
2023-03-25T04:48:24.468Z,98113.97
2023-03-25T04:50:55.949Z,98113.06
2023-03-25T04:53:22.732Z,98117.22
2023-03-25T04:55:50.359Z,98127.00
2023-03-25T04:58:17.585Z,98131.16
2023-03-25T05:00:45.844Z,98139.63
2023-03-25T05:03:12.547Z,98134.44
2023-03-25T05:05:39.521Z,98138.25
2023-03-25T05:08:06.099Z,98131.06
2023-03-25T05:10:32.680Z,98133.53
2023-03-25T05:13:01.572Z,98155.41
2023-03-25T05:15:30.397Z,98147.50
2023-03-25T05:17:57.075Z,98143.72
2023-03-25T05:20:24.460Z,98162.03
2023-03-25T05:22:53.376Z,98155.25
2023-03-25T05:25:22.877Z,98164.28
2023-03-25T05:27:49.381Z,98159.38
2023-03-25T05:30:16.644Z,98182.78
2023-03-25T05:32:45.791Z,98175.66
2023-03-25T05:35:12.651Z,98173.47
2023-03-25T05:37:39.222Z,98172.81
2023-03-25T05:40:14.964Z,98177.84
2023-03-25T05:42:48.805Z,98181.41
2023-03-25T05:45:16.439Z,98192.72
2023-03-25T05:47:44.399Z,98178.75
2023-03-25T05:50:11.248Z,98196.53
2023-03-25T05:52:41.437Z,98194.28
2023-03-25T05:55:14.723Z,98203.94
2023-03-25T05:57:41.493Z,98214.97
2023-03-25T06:00:11.039Z,98201.25
2023-03-25T06:02:43.387Z,98199.34
2023-03-25T06:05:14.005Z,98212.28
2023-03-25T06:07:46.123Z,98208.81
2023-03-25T06:10:19.866Z,98221.44
2023-03-25T06:12:47.712Z,98230.00
2023-03-25T06:15:29.195Z,98214.91
2023-03-25T06:18:05.745Z,98217.75
2023-03-25T06:20:33.621Z,98210.28
2023-03-25T06:23:01.973Z,98218.69
2023-03-25T06:25:28.674Z,98214.13
2023-03-25T06:28:05.986Z,98220.00
2023-03-25T06:30:32.728Z,98202.75
2023-03-25T06:33:02.947Z,98220.75
2023-03-25T06:35:31.282Z,98225.13
2023-03-25T06:37:58.087Z,98226.59
2023-03-25T06:40:31.063Z,98241.63
2023-03-25T06:43:00.104Z,98225.06
2023-03-25T06:46:05.892Z,98237.19
2023-03-25T06:48:58.445Z,98241.41
2023-03-25T06:51:25.191Z,98241.66
2023-03-25T06:53:55.117Z,98237.00
2023-03-25T06:56:24.253Z,98242.34
2023-03-25T06:58:50.975Z,98250.53
2023-03-25T07:01:21.002Z,98240.31
2023-03-25T07:03:53.151Z,98250.38
2023-03-25T07:06:21.942Z,98230.81
2023-03-25T07:08:51.805Z,98240.47
2023-03-25T07:11:26.364Z,98243.69
2023-03-25T07:13:54.022Z,98249.69
2023-03-25T07:16:21.962Z,98245.47
2023-03-25T07:18:53.812Z,98256.19
2023-03-25T07:21:21.182Z,98246.56
2023-03-25T07:24:08.560Z,98250.94
2023-03-25T07:27:34.221Z,98244.09
2023-03-25T07:30:12.832Z,98246.28
2023-03-25T07:32:41.203Z,98249.19
2023-03-25T07:35:16.946Z,98255.28
2023-03-25T07:37:43.639Z,98253.28
2023-03-25T07:40:13.069Z,98248.16
2023-03-25T07:42:40.226Z,98245.63
2023-03-25T07:45:24.360Z,98245.88
2023-03-25T07:48:02.811Z,98253.97
2023-03-25T07:50:35.061Z,98242.72
2023-03-25T07:53:04.791Z,98248.16
2023-03-25T07:55:33.889Z,98241.47
2023-03-25T07:58:02.963Z,98237.84
2023-03-25T08:00:33.823Z,98243.91
2023-03-25T08:03:10.917Z,98242.66
2023-03-25T08:06:16.021Z,98237.03
2023-03-25T08:08:45.749Z,98240.69
2023-03-25T08:11:12.479Z,98230.28
2023-03-25T08:13:39.449Z,98231.56
2023-03-25T08:16:12.197Z,98235.00
2023-03-25T08:18:39.162Z,98234.19
2023-03-25T08:21:06.107Z,98241.47
2023-03-25T08:23:36.857Z,98230.78
2023-03-25T08:26:05.584Z,98234.88
2023-03-25T08:28:32.305Z,98225.97
2023-03-25T08:31:02.392Z,98227.69
2023-03-25T08:33:39.642Z,98225.78
2023-03-25T08:36:07.715Z,98232.94
2023-03-25T08:38:35.261Z,98234.28
2023-03-25T08:41:02.931Z,98233.16
2023-03-25T08:43:29.506Z,98238.88
2023-03-25T08:45:56.379Z,98242.81
2023-03-25T08:48:24.427Z,98228.84
2023-03-25T08:50:50.958Z,98225.97
2023-03-25T08:53:17.464Z,98231.13
2023-03-25T08:55:44.042Z,98220.91
2023-03-25T08:58:10.575Z,98211.78
2023-03-25T09:00:37.769Z,98210.28
2023-03-25T09:03:06.283Z,98220.03
2023-03-25T09:05:33.287Z,98221.31
2023-03-25T09:08:00.935Z,98212.19
2023-03-25T09:10:27.692Z,98217.13
2023-03-25T09:12:54.451Z,98220.63
2023-03-25T09:15:21.148Z,98217.97
2023-03-25T09:17:47.990Z,98209.75
2023-03-25T09:20:14.925Z,98204.91
2023-03-25T09:22:41.674Z,98211.75
2023-03-25T09:25:09.065Z,98200.47
2023-03-25T09:27:35.662Z,98198.75
2023-03-25T09:30:03.540Z,98191.16
2023-03-25T09:32:30.196Z,98208.44
2023-03-25T09:34:56.852Z,98193.66
2023-03-25T09:40:43.764Z,98189.81
2023-03-25T09:50:07.018Z,98191.53
2023-03-25T09:53:19.455Z,98188.44
2023-03-25T10:08:16.812Z,98190.47
2023-03-25T10:18:40.837Z,98175.06
2023-03-25T10:22:20.574Z,98174.28
2023-03-25T10:25:00.368Z,98289.25
2023-03-25T10:27:36.131Z,98368.63
2023-03-25T10:30:15.452Z,98401.00
2023-03-25T10:32:50.556Z,98388.50
2023-03-25T10:35:22.288Z,98377.88
2023-03-25T10:37:53.941Z,98350.56
2023-03-25T10:40:30.013Z,98328.56
2023-03-25T10:43:21.040Z,98330.78
2023-03-25T10:45:52.235Z,98329.88
2023-03-25T10:48:18.958Z,98318.34
2023-03-25T10:50:46.640Z,98308.31
2023-03-25T10:53:31.722Z,98314.97
2023-03-25T10:56:24.242Z,98316.22
2023-03-25T11:02:06.675Z,98312.63
2023-03-25T11:04:38.138Z,98303.28
2023-03-25T11:07:44.902Z,98291.22
2023-03-25T11:10:23.854Z,98290.19
2023-03-25T11:13:03.417Z,98280.00
2023-03-25T11:16:32.477Z,98279.72
2023-03-25T11:20:01.597Z,98283.28
2023-03-25T11:27:25.310Z,98276.91
2023-03-25T11:29:55.813Z,98273.63
2023-03-25T11:32:40.015Z,98277.47
2023-03-25T11:35:17.281Z,98270.03
2023-03-25T11:37:53.629Z,98264.97
2023-03-25T11:40:21.006Z,98268.06
2023-03-25T11:42:54.194Z,98268.84
2023-03-25T11:45:33.879Z,98260.72
2023-03-25T11:48:15.572Z,98258.78
2023-03-25T11:51:09.644Z,98260.97
2023-03-25T11:53:37.219Z,98254.81
2023-03-25T11:56:08.865Z,98248.41
2023-03-25T11:58:39.395Z,98253.03
2023-03-25T12:01:18.074Z,98240.91
2023-03-25T12:03:45.511Z,98239.13
2023-03-25T12:06:12.253Z,98230.44
2023-03-25T12:08:59.015Z,98227.25
2023-03-25T12:12:28.706Z,98219.56
2023-03-25T12:15:14.112Z,98210.56
2023-03-25T12:17:43.698Z,98207.78
2023-03-25T12:20:28.610Z,98214.31
2023-03-25T12:23:02.038Z,98210.84
2023-03-25T12:25:41.815Z,98217.41
2023-03-25T12:28:24.464Z,98212.59
2023-03-25T12:31:08.801Z,98202.88
2023-03-25T12:33:44.544Z,98215.56
2023-03-25T12:36:26.033Z,98189.13
2023-03-25T12:39:00.349Z,98193.16
2023-03-25T12:41:49.030Z,98198.88
2023-03-25T12:44:37.930Z,98185.94
2023-03-25T12:47:18.267Z,98173.13
2023-03-25T12:50:22.899Z,98174.66
2023-03-25T12:53:07.146Z,98173.06
2023-03-25T12:55:36.683Z,98167.09
2023-03-25T12:58:09.149Z,98161.09
2023-03-25T13:01:10.272Z,98165.84
2023-03-25T13:03:39.918Z,98158.97
2023-03-25T13:06:34.924Z,98165.00
2023-03-25T13:09:24.798Z,98150.81
2023-03-25T13:11:56.833Z,98153.69
2023-03-25T13:15:26.427Z,98145.81
2023-03-25T13:18:14.289Z,98157.50
2023-03-25T13:21:06.890Z,98144.84
2023-03-25T13:24:08.605Z,98133.16
2023-03-25T13:26:44.871Z,98133.66
2023-03-25T13:29:37.927Z,98147.19
2023-03-25T13:32:15.466Z,98140.53
2023-03-25T13:34:53.626Z,98139.59
2023-03-25T13:37:29.327Z,98140.09
2023-03-25T13:40:14.532Z,98135.88
2023-03-25T13:42:52.101Z,98142.44
2023-03-25T13:45:22.320Z,98146.00
2023-03-25T13:48:15.663Z,98145.69
2023-03-25T13:50:45.928Z,98139.94
2023-03-25T13:53:34.857Z,98143.34
2023-03-25T13:56:07.020Z,98135.22
2023-03-25T13:58:49.195Z,98153.38
2023-03-25T14:01:37.595Z,98155.59
2023-03-25T14:04:32.330Z,98175.03
2023-03-25T14:07:22.780Z,98175.88
2023-03-25T14:10:10.684Z,98179.75
2023-03-25T14:12:45.394Z,98177.94
2023-03-25T14:15:16.940Z,98177.84
2023-03-25T14:17:47.016Z,98185.63
2023-03-25T14:20:25.281Z,98184.84
2023-03-25T14:22:59.325Z,98178.50
2023-03-25T14:25:40.432Z,98169.13
2023-03-25T14:28:12.257Z,98175.84
2023-03-25T14:30:40.011Z,98184.75
2023-03-25T14:33:10.397Z,98178.59
2023-03-25T14:35:36.933Z,98187.44
2023-03-25T14:38:09.520Z,98181.25
2023-03-25T14:40:47.388Z,98177.00
2023-03-25T14:43:47.806Z,98172.78
2023-03-25T14:46:20.515Z,98168.28
2023-03-25T14:49:18.303Z,98168.59
2023-03-25T14:51:52.506Z,98158.78
2023-03-25T14:54:19.110Z,98165.72
2023-03-25T14:56:56.862Z,98160.44
2023-03-25T14:59:31.019Z,98156.16
2023-03-25T15:02:04.675Z,98162.59
2023-03-25T15:04:35.450Z,98164.56
2023-03-25T15:07:03.465Z,98160.78
2023-03-25T15:09:31.311Z,98168.47
2023-03-25T15:12:02.443Z,98149.06
2023-03-25T15:14:38.358Z,98159.84
2023-03-25T15:17:11.788Z,98148.84
2023-03-25T15:20:09.086Z,98136.53
2023-03-25T15:22:36.097Z,98149.59
2023-03-25T15:25:12.461Z,98151.69
2023-03-25T15:28:04.117Z,98151.59
2023-03-25T15:31:01.554Z,98153.41
2023-03-25T15:34:11.621Z,98149.38
2023-03-25T15:36:55.231Z,98139.56
2023-03-25T15:39:52.804Z,98140.94
2023-03-25T15:42:28.543Z,98138.84
2023-03-25T15:45:08.735Z,98128.72
2023-03-25T15:47:56.682Z,98148.44
2023-03-25T15:50:35.622Z,98136.84
2023-03-25T15:53:39.860Z,98149.06
2023-03-25T15:56:14.869Z,98145.88
2023-03-25T15:58:55.131Z,98149.06
2023-03-25T16:01:29.231Z,98146.34
2023-03-25T16:04:34.460Z,98154.84
2023-03-25T16:07:04.939Z,98141.63
2023-03-25T16:09:33.589Z,98157.47
2023-03-25T16:12:02.834Z,98145.09
2023-03-25T16:14:32.310Z,98150.91
2023-03-25T16:17:01.999Z,98144.66
2023-03-25T16:19:40.023Z,98146.31
2023-03-25T16:22:28.180Z,98136.19
2023-03-25T16:24:57.393Z,98145.69
2023-03-25T16:27:30.379Z,98149.22
2023-03-25T16:29:57.726Z,98152.84
2023-03-25T16:32:33.399Z,98152.53
2023-03-25T16:35:07.796Z,98153.69
2023-03-25T16:37:41.690Z,98155.31
2023-03-25T16:40:13.061Z,98153.38
2023-03-25T16:42:45.531Z,98158.97
2023-03-25T16:45:22.886Z,98147.44
2023-03-25T16:47:50.160Z,98164.75
2023-03-25T16:50:19.870Z,98157.59
2023-03-25T16:52:47.150Z,98151.19
2023-03-25T16:55:29.349Z,98140.97
2023-03-25T16:57:56.204Z,98148.63
2023-03-25T17:00:51.213Z,98149.47
2023-03-25T17:03:46.338Z,98144.94
2023-03-25T17:06:30.925Z,98147.91
2023-03-25T17:08:58.897Z,98160.91
2023-03-25T17:11:31.390Z,98146.72
2023-03-25T17:14:15.567Z,98156.34
2023-03-25T17:16:43.160Z,98160.53
2023-03-25T17:19:31.003Z,98155.47
2023-03-25T17:22:42.247Z,98178.94
2023-03-25T17:25:24.000Z,98165.31
2023-03-25T17:27:55.737Z,98188.13
2023-03-25T17:30:41.994Z,98187.53
2023-03-25T17:33:31.444Z,98192.41
2023-03-25T17:35:58.074Z,98201.53
2023-03-25T17:38:28.406Z,98216.72
2023-03-25T17:54:09.864Z,98223.88
2023-03-25T17:56:38.583Z,98230.72
2023-03-25T17:59:21.096Z,98225.66
2023-03-25T18:01:50.364Z,98227.56
2023-03-25T18:04:19.936Z,98231.63
2023-03-25T18:06:49.981Z,98232.56
2023-03-25T18:09:33.711Z,98225.13
2023-03-25T18:12:03.218Z,98238.00
2023-03-25T18:14:34.223Z,98230.22
2023-03-25T18:17:00.878Z,98236.13
2023-03-25T18:19:34.094Z,98233.41
2023-03-25T18:22:09.991Z,98230.41
2023-03-25T18:24:40.718Z,98240.53
2023-03-25T18:27:27.832Z,98236.06
2023-03-25T18:30:35.084Z,98247.13
2023-03-25T18:33:05.071Z,98242.06
2023-03-25T18:35:35.193Z,98248.13
2023-03-25T18:38:02.050Z,98247.06
2023-03-25T18:40:33.688Z,98246.06
2023-03-25T18:43:00.802Z,98248.88
2023-03-25T18:45:28.078Z,98251.88
2023-03-25T18:47:56.150Z,98253.56
2023-03-25T18:50:49.027Z,98258.59
2023-03-25T18:53:20.990Z,98265.22
2023-03-25T18:55:53.488Z,98256.44
2023-03-25T18:58:24.389Z,98271.41
2023-03-25T19:00:53.446Z,98261.75
2023-03-25T19:03:39.199Z,98281.34
2023-03-25T19:06:21.942Z,98269.97
2023-03-25T19:09:04.555Z,98283.28
2023-03-25T19:12:00.048Z,98284.09
2023-03-25T19:14:27.491Z,98284.13
2023-03-25T19:17:03.514Z,98298.28
2023-03-25T19:19:33.541Z,98300.19
2023-03-25T19:22:00.413Z,98302.88
2023-03-25T19:24:28.848Z,98309.94
2023-03-25T19:26:59.323Z,98309.31
2023-03-25T19:29:26.993Z,98307.56
2023-03-25T19:31:54.022Z,98307.63
2023-03-25T19:34:30.229Z,98310.34
2023-03-25T19:37:02.949Z,98306.88
2023-03-25T19:39:31.795Z,98304.31
2023-03-25T19:42:02.229Z,98317.03
2023-03-25T19:44:31.557Z,98323.41
2023-03-25T19:47:17.071Z,98312.66
2023-03-25T19:49:51.001Z,98326.13
2023-03-25T19:52:26.934Z,98332.63
2023-03-25T19:55:09.265Z,98331.63
2023-03-25T19:57:36.190Z,98330.69
2023-03-25T20:00:14.301Z,98329.22
2023-03-25T20:02:52.607Z,98336.34
2023-03-25T20:05:30.370Z,98334.31
2023-03-25T20:07:57.460Z,98329.75
2023-03-25T20:10:27.884Z,98338.97
2023-03-25T20:12:58.090Z,98322.75
2023-03-25T20:15:26.375Z,98330.63
2023-03-25T20:17:54.230Z,98335.72
2023-03-25T20:20:22.011Z,98332.78
2023-03-25T20:22:48.914Z,98323.00
2023-03-25T20:25:17.908Z,98322.34
2023-03-25T20:27:47.431Z,98326.06
2023-03-25T20:30:17.684Z,98327.22
2023-03-25T20:32:48.788Z,98320.06
2023-03-25T20:35:22.647Z,98319.19
2023-03-25T20:37:53.193Z,98331.56
2023-03-25T20:40:25.420Z,98325.44
2023-03-25T20:43:00.258Z,98319.13
2023-03-25T20:45:29.531Z,98313.44
2023-03-25T20:47:57.794Z,98314.81
2023-03-25T20:50:27.749Z,98315.09
2023-03-25T20:53:02.837Z,98304.84
2023-03-25T20:55:29.816Z,98312.22
2023-03-25T20:57:56.622Z,98309.00
2023-03-25T21:00:25.808Z,98311.31
2023-03-25T21:02:52.812Z,98308.38
2023-03-25T21:05:19.888Z,98307.34
2023-03-25T21:07:49.210Z,98292.97
2023-03-25T21:10:20.636Z,98303.31
2023-03-25T21:12:51.387Z,98306.94
2023-03-25T21:15:20.809Z,98307.97
2023-03-25T21:17:51.162Z,98312.56
2023-03-25T21:20:21.977Z,98325.03
2023-03-25T21:22:54.089Z,98322.34
2023-03-25T21:25:38.896Z,98322.66
2023-03-25T21:28:10.854Z,98328.16
2023-03-25T21:30:40.009Z,98327.09
2023-03-25T21:33:08.797Z,98327.91
2023-03-25T21:35:37.896Z,98328.56
2023-03-25T21:38:08.183Z,98326.97
2023-03-25T21:40:50.324Z,98326.41
2023-03-25T21:43:19.728Z,98326.28
2023-03-25T21:45:57.912Z,98342.88
2023-03-25T21:48:43.245Z,98346.03
2023-03-25T21:51:15.314Z,98358.78
2023-03-25T21:53:47.722Z,98359.97
2023-03-25T21:56:17.968Z,98366.34
2023-03-25T21:58:51.397Z,98371.97
2023-03-25T22:01:29.129Z,98367.88
2023-03-25T22:03:59.246Z,98375.00
2023-03-25T22:06:43.988Z,98377.03
2023-03-25T22:09:20.181Z,98368.81
2023-03-25T22:11:49.093Z,98372.03
2023-03-25T22:14:19.190Z,98369.91
2023-03-25T22:16:54.845Z,98365.41
2023-03-25T22:19:24.073Z,98370.94
2023-03-25T22:21:53.487Z,98362.63
2023-03-25T22:24:20.401Z,98378.13
2023-03-25T22:26:47.081Z,98381.69
2023-03-25T22:29:25.884Z,98390.44
2023-03-25T22:32:08.720Z,98381.84
2023-03-25T22:34:39.524Z,98398.09
2023-03-25T22:37:10.035Z,98389.25
2023-03-25T22:39:39.198Z,98394.59
2023-03-25T22:42:09.094Z,98392.09
2023-03-25T22:44:44.739Z,98388.00
2023-03-25T22:47:11.487Z,98392.72
2023-03-25T22:49:38.159Z,98384.03
2023-03-25T22:52:04.993Z,98388.34
2023-03-25T22:54:31.773Z,98390.13
2023-03-25T22:56:58.448Z,98392.66
2023-03-25T22:59:25.027Z,98397.50
2023-03-25T23:01:51.643Z,98391.47
2023-03-25T23:04:18.237Z,98395.13
2023-03-25T23:06:51.224Z,98398.41
2023-03-25T23:09:43.706Z,98401.22
2023-03-25T23:12:28.335Z,98394.94
2023-03-25T23:14:56.469Z,98393.72
2023-03-25T23:17:24.447Z,98390.44
2023-03-25T23:19:52.296Z,98383.00
2023-03-25T23:22:19.688Z,98381.59
2023-03-25T23:24:46.226Z,98377.78
2023-03-25T23:27:13.186Z,98384.66
2023-03-25T23:29:41.595Z,98385.25
2023-03-25T23:32:10.307Z,98382.41
2023-03-25T23:34:38.310Z,98381.06
2023-03-25T23:37:07.656Z,98379.66
2023-03-25T23:39:34.915Z,98385.41
2023-03-25T23:42:01.498Z,98380.84
2023-03-25T23:44:28.011Z,98371.63
2023-03-25T23:46:54.592Z,98375.81
2023-03-25T23:49:21.181Z,98370.94
2023-03-25T23:51:47.719Z,98371.56
2023-03-25T23:54:15.819Z,98367.09
2023-03-25T23:56:43.062Z,98374.69
2023-03-25T23:59:11.651Z,98379.44
